sensor_id;sensor_type;location;lat;lon;timestamp;pressure;altitude;pressure_sealevel;temperature;humidity
66524;BME280;53350;52.210;5.160;2023-03-14T00:02:19;98858.97;;;12.54;66.96
66524;BME280;53350;52.210;5.160;2023-03-14T00:04:46;98871.94;;;12.52;67.00
66524;BME280;53350;52.210;5.160;2023-03-14T00:07:13;98859.03;;;12.52;66.99
66524;BME280;53350;52.210;5.160;2023-03-14T00:09:41;98856.28;;;12.56;66.93
66524;BME280;53350;52.210;5.160;2023-03-14T00:12:08;98855.22;;;12.60;66.44
66524;BME280;53350;52.210;5.160;2023-03-14T00:14:35;98849.84;;;12.64;66.41
66524;BME280;53350;52.210;5.160;2023-03-14T00:17:01;98849.06;;;12.62;66.61
66524;BME280;53350;52.210;5.160;2023-03-14T00:19:27;98856.91;;;12.61;66.60
66524;BME280;53350;52.210;5.160;2023-03-14T00:21:54;98855.91;;;12.63;66.58
66524;BME280;53350;52.210;5.160;2023-03-14T00:24:20;98860.91;;;12.66;66.44
66524;BME280;53350;52.210;5.160;2023-03-14T00:26:48;98853.06;;;12.68;66.46
66524;BME280;53350;52.210;5.160;2023-03-14T00:29:14;98846.22;;;12.67;66.55
66524;BME280;53350;52.210;5.160;2023-03-14T00:31:41;98854.91;;;12.66;66.58
66524;BME280;53350;52.210;5.160;2023-03-14T00:34:07;98844.50;;;12.67;66.55
66524;BME280;53350;52.210;5.160;2023-03-14T00:36:34;98843.44;;;12.72;66.49
66524;BME280;53350;52.210;5.160;2023-03-14T00:39:00;98845.94;;;12.73;66.57
66524;BME280;53350;52.210;5.160;2023-03-14T00:41:26;98849.34;;;12.74;66.62
66524;BME280;53350;52.210;5.160;2023-03-14T00:43:54;98848.16;;;12.63;67.11
66524;BME280;53350;52.210;5.160;2023-03-14T00:46:21;98854.16;;;12.64;67.11
66524;BME280;53350;52.210;5.160;2023-03-14T00:48:47;98855.06;;;12.63;67.11
66524;BME280;53350;52.210;5.160;2023-03-14T00:51:14;98850.91;;;12.60;67.25
66524;BME280;53350;52.210;5.160;2023-03-14T00:53:41;98854.56;;;12.56;67.60
66524;BME280;53350;52.210;5.160;2023-03-14T00:56:09;98861.41;;;12.57;67.44
66524;BME280;53350;52.210;5.160;2023-03-14T00:58:36;98864.81;;;12.58;67.31
66524;BME280;53350;52.210;5.160;2023-03-14T01:01:09;98864.13;;;12.54;67.31
66524;BME280;53350;52.210;5.160;2023-03-14T01:03:36;98870.38;;;12.50;67.49
66524;BME280;53350;52.210;5.160;2023-03-14T01:06:10;98871.38;;;12.47;68.18
66524;BME280;53350;52.210;5.160;2023-03-14T01:08:37;98862.63;;;12.50;68.36
66524;BME280;53350;52.210;5.160;2023-03-14T01:11:08;98860.34;;;12.44;68.96
66524;BME280;53350;52.210;5.160;2023-03-14T01:13:35;98868.41;;;12.38;69.73
66524;BME280;53350;52.210;5.160;2023-03-14T01:16:03;98859.47;;;12.27;70.66
66524;BME280;53350;52.210;5.160;2023-03-14T01:18:32;98856.16;;;12.25;70.64
66524;BME280;53350;52.210;5.160;2023-03-14T01:21:00;98858.06;;;12.22;70.70
66524;BME280;53350;52.210;5.160;2023-03-14T01:23:26;98861.38;;;12.24;70.97
66524;BME280;53350;52.210;5.160;2023-03-14T01:25:53;98866.94;;;12.16;71.48
66524;BME280;53350;52.210;5.160;2023-03-14T01:28:19;98864.44;;;12.14;71.61
66524;BME280;53350;52.210;5.160;2023-03-14T01:30:45;98870.56;;;12.12;71.98
66524;BME280;53350;52.210;5.160;2023-03-14T01:33:12;98868.84;;;12.12;72.68
66524;BME280;53350;52.210;5.160;2023-03-14T01:35:41;98877.81;;;12.05;73.82
66524;BME280;53350;52.210;5.160;2023-03-14T01:38:07;98876.28;;;12.01;73.34
66524;BME280;53350;52.210;5.160;2023-03-14T01:40:34;98877.63;;;11.91;73.79
66524;BME280;53350;52.210;5.160;2023-03-14T01:43:12;98876.41;;;11.80;74.87
66524;BME280;53350;52.210;5.160;2023-03-14T01:48:49;98870.88;;;11.71;75.24
66524;BME280;53350;52.210;5.160;2023-03-14T01:51:22;98858.06;;;11.69;75.38
66524;BME280;53350;52.210;5.160;2023-03-14T01:53:53;98862.22;;;11.72;75.15
66524;BME280;53350;52.210;5.160;2023-03-14T01:56:21;98863.44;;;11.64;75.06
66524;BME280;53350;52.210;5.160;2023-03-14T01:58:49;98865.78;;;11.69;75.17
66524;BME280;53350;52.210;5.160;2023-03-14T02:01:20;98858.72;;;11.73;75.17
66524;BME280;53350;52.210;5.160;2023-03-14T02:03:51;98849.47;;;11.69;75.22
66524;BME280;53350;52.210;5.160;2023-03-14T02:06:23;98848.88;;;11.63;75.32
66524;BME280;53350;52.210;5.160;2023-03-14T02:08:51;98833.97;;;11.69;75.25
66524;BME280;53350;52.210;5.160;2023-03-14T02:11:18;98831.28;;;11.72;74.77
66524;BME280;53350;52.210;5.160;2023-03-14T02:13:45;98829.44;;;11.74;74.83
66524;BME280;53350;52.210;5.160;2023-03-14T02:16:12;98830.19;;;11.76;74.72
66524;BME280;53350;52.210;5.160;2023-03-14T02:18:38;98828.22;;;11.81;74.51
66524;BME280;53350;52.210;5.160;2023-03-14T02:21:10;98824.13;;;11.77;74.56
66524;BME280;53350;52.210;5.160;2023-03-14T02:23:48;98810.50;;;11.75;74.62
66524;BME280;53350;52.210;5.160;2023-03-14T02:26:20;98836.44;;;11.72;74.53
66524;BME280;53350;52.210;5.160;2023-03-14T02:28:50;98828.47;;;11.76;74.22
66524;BME280;53350;52.210;5.160;2023-03-14T02:31:18;98821.56;;;11.77;74.44
66524;BME280;53350;52.210;5.160;2023-03-14T02:33:46;98824.22;;;11.75;74.58
66524;BME280;53350;52.210;5.160;2023-03-14T02:36:14;98822.44;;;11.76;74.31
66524;BME280;53350;52.210;5.160;2023-03-14T02:38:45;98825.34;;;11.70;74.77
66524;BME280;53350;52.210;5.160;2023-03-14T02:41:13;98821.78;;;11.72;74.49
66524;BME280;53350;52.210;5.160;2023-03-14T02:43:39;98816.94;;;11.66;74.79
66524;BME280;53350;52.210;5.160;2023-03-14T02:46:10;98818.75;;;11.64;74.65
66524;BME280;53350;52.210;5.160;2023-03-14T02:48:40;98813.97;;;11.56;75.24
66524;BME280;53350;52.210;5.160;2023-03-14T02:51:07;98816.41;;;11.59;74.95
66524;BME280;53350;52.210;5.160;2023-03-14T02:53:35;98808.44;;;11.64;74.90
66524;BME280;53350;52.210;5.160;2023-03-14T02:56:02;98812.06;;;11.60;74.96
66524;BME280;53350;52.210;5.160;2023-03-14T02:58:30;98809.56;;;11.58;75.21
66524;BME280;53350;52.210;5.160;2023-03-14T03:00:56;98812.84;;;11.62;74.92
66524;BME280;53350;52.210;5.160;2023-03-14T03:03:24;98814.88;;;11.55;75.34
66524;BME280;53350;52.210;5.160;2023-03-14T03:05:50;98806.38;;;11.53;75.25
66524;BME280;53350;52.210;5.160;2023-03-14T03:08:18;98794.47;;;11.51;75.26
66524;BME280;53350;52.210;5.160;2023-03-14T03:10:45;98790.22;;;11.49;75.41
66524;BME280;53350;52.210;5.160;2023-03-14T03:13:11;98806.38;;;11.53;75.36
66524;BME280;53350;52.210;5.160;2023-03-14T03:15:38;98796.81;;;11.55;75.08
66524;BME280;53350;52.210;5.160;2023-03-14T03:18:04;98806.47;;;11.52;75.21
66524;BME280;53350;52.210;5.160;2023-03-14T03:20:32;98803.88;;;11.52;75.24
66524;BME280;53350;52.210;5.160;2023-03-14T03:22:59;98794.25;;;11.55;75.16
66524;BME280;53350;52.210;5.160;2023-03-14T03:25:25;98790.69;;;11.58;75.07
66524;BME280;53350;52.210;5.160;2023-03-14T03:27:52;98786.19;;;11.61;75.11
66524;BME280;53350;52.210;5.160;2023-03-14T03:30:19;98790.44;;;11.62;75.17
66524;BME280;53350;52.210;5.160;2023-03-14T03:32:46;98787.94;;;11.61;75.05
66524;BME280;53350;52.210;5.160;2023-03-14T03:35:12;98786.06;;;11.64;74.92
66524;BME280;53350;52.210;5.160;2023-03-14T03:37:40;98790.44;;;11.62;75.15
66524;BME280;53350;52.210;5.160;2023-03-14T03:40:08;98788.56;;;11.66;74.89
66524;BME280;53350;52.210;5.160;2023-03-14T03:42:35;98794.63;;;11.65;75.49
66524;BME280;53350;52.210;5.160;2023-03-14T03:45:02;98794.00;;;11.60;75.08
66524;BME280;53350;52.210;5.160;2023-03-14T03:47:30;98789.63;;;11.62;74.96
66524;BME280;53350;52.210;5.160;2023-03-14T03:49:56;98787.94;;;11.61;74.96
66524;BME280;53350;52.210;5.160;2023-03-14T03:52:23;98784.47;;;11.62;75.00
66524;BME280;53350;52.210;5.160;2023-03-14T03:54:51;98780.13;;;11.62;74.98
66524;BME280;53350;52.210;5.160;2023-03-14T03:57:17;98788.66;;;11.64;74.94
66524;BME280;53350;52.210;5.160;2023-03-14T03:59:43;98777.63;;;11.61;75.04
66524;BME280;53350;52.210;5.160;2023-03-14T04:02:10;98786.06;;;11.64;74.78
66524;BME280;53350;52.210;5.160;2023-03-14T04:04:36;98781.59;;;11.68;74.70
66524;BME280;53350;52.210;5.160;2023-03-14T04:07:03;98784.09;;;11.70;74.67
66524;BME280;53350;52.210;5.160;2023-03-14T04:09:31;98772.88;;;11.71;74.49
66524;BME280;53350;52.210;5.160;2023-03-14T04:11:58;98780.84;;;11.66;74.48
66524;BME280;53350;52.210;5.160;2023-03-14T04:14:25;98781.03;;;11.61;75.08
66524;BME280;53350;52.210;5.160;2023-03-14T04:16:52;98778.34;;;11.64;74.54
66524;BME280;53350;52.210;5.160;2023-03-14T04:19:18;98784.91;;;11.70;74.38
66524;BME280;53350;52.210;5.160;2023-03-14T04:21:45;98779.06;;;11.66;74.62
66524;BME280;53350;52.210;5.160;2023-03-14T04:24:12;98784.91;;;11.70;74.52
66524;BME280;53350;52.210;5.160;2023-03-14T04:26:38;98782.78;;;11.78;73.98
66524;BME280;53350;52.210;5.160;2023-03-14T04:29:06;98789.69;;;11.78;74.06
66524;BME280;53350;52.210;5.160;2023-03-14T04:31:32;98782.78;;;11.78;73.95
66524;BME280;53350;52.210;5.160;2023-03-14T04:33:59;98770.66;;;11.80;73.85
66524;BME280;53350;52.210;5.160;2023-03-14T04:36:25;98780.44;;;11.74;74.16
66524;BME280;53350;52.210;5.160;2023-03-14T04:38:52;98782.03;;;11.76;74.08
66524;BME280;53350;52.210;5.160;2023-03-14T04:41:18;98778.03;;;11.71;74.27
66524;BME280;53350;52.210;5.160;2023-03-14T04:43:44;98771.19;;;11.70;74.75
66524;BME280;53350;52.210;5.160;2023-03-14T04:46:12;98777.25;;;11.69;74.87
66524;BME280;53350;52.210;5.160;2023-03-14T04:48:39;98774.41;;;11.57;75.69
66524;BME280;53350;52.210;5.160;2023-03-14T04:51:06;98775.97;;;11.60;75.43
66524;BME280;53350;52.210;5.160;2023-03-14T04:53:32;98774.16;;;11.62;75.63
66524;BME280;53350;52.210;5.160;2023-03-14T04:55:59;98784.31;;;11.65;75.73
66524;BME280;53350;52.210;5.160;2023-03-14T04:58:25;98773.91;;;11.66;76.01
66524;BME280;53350;52.210;5.160;2023-03-14T05:00:52;98781.66;;;11.66;76.24
66524;BME280;53350;52.210;5.160;2023-03-14T05:03:20;98779.06;;;11.66;76.58
66524;BME280;53350;52.210;5.160;2023-03-14T05:05:47;98776.50;;;11.66;76.95
66524;BME280;53350;52.210;5.160;2023-03-14T05:08:13;98774.97;;;11.62;76.99
66524;BME280;53350;52.210;5.160;2023-03-14T05:10:39;98779.41;;;11.60;77.05
66524;BME280;53350;52.210;5.160;2023-03-14T05:13:06;98768.09;;;11.63;77.52
66524;BME280;53350;52.210;5.160;2023-03-14T05:15:32;98767.31;;;11.61;77.84
66524;BME280;53350;52.210;5.160;2023-03-14T05:17:59;98774.22;;;11.60;77.96
66524;BME280;53350;52.210;5.160;2023-03-14T05:20:26;98776.19;;;11.55;78.24
66524;BME280;53350;52.210;5.160;2023-03-14T05:22:53;98770.06;;;11.58;78.52
66524;BME280;53350;52.210;5.160;2023-03-14T05:25:19;98758.22;;;11.54;78.43
66524;BME280;53350;52.210;5.160;2023-03-14T05:27:46;98755.66;;;11.54;78.82
66524;BME280;53350;52.210;5.160;2023-03-14T05:30:12;98748.06;;;11.51;79.18
66524;BME280;53350;52.210;5.160;2023-03-14T05:32:39;98741.47;;;11.45;79.23
66524;BME280;53350;52.210;5.160;2023-03-14T05:35:06;98745.09;;;11.41;79.30
66524;BME280;53350;52.210;5.160;2023-03-14T05:37:34;98741.78;;;11.39;79.37
66524;BME280;53350;52.210;5.160;2023-03-14T05:40:00;98735.78;;;11.38;79.28
66524;BME280;53350;52.210;5.160;2023-03-14T05:42:28;98736.72;;;11.37;79.73
66524;BME280;53350;52.210;5.160;2023-03-14T05:44:54;98747.91;;;11.36;79.69
66524;BME280;53350;52.210;5.160;2023-03-14T05:47:21;98745.03;;;11.42;79.72
66524;BME280;53350;52.210;5.160;2023-03-14T05:49:47;98742.84;;;11.35;80.13
66524;BME280;53350;52.210;5.160;2023-03-14T05:52:14;98749.66;;;11.36;79.91
66524;BME280;53350;52.210;5.160;2023-03-14T05:54:42;98748.06;;;11.33;80.27
66524;BME280;53350;52.210;5.160;2023-03-14T05:57:08;98758.47;;;11.31;80.29
66524;BME280;53350;52.210;5.160;2023-03-14T05:59:35;98771.19;;;11.35;80.35
66524;BME280;53350;52.210;5.160;2023-03-14T06:02:01;98770.97;;;11.39;80.12
66524;BME280;53350;52.210;5.160;2023-03-14T06:04:27;98775.44;;;11.36;80.14
66524;BME280;53350;52.210;5.160;2023-03-14T06:06:54;98775.53;;;11.34;80.55
66524;BME280;53350;52.210;5.160;2023-03-14T06:09:20;98785.69;;;11.37;80.45
66524;BME280;53350;52.210;5.160;2023-03-14T06:11:49;98796.50;;;11.44;80.33
66524;BME280;53350;52.210;5.160;2023-03-14T06:14:16;98801.81;;;11.41;80.17
66524;BME280;53350;52.210;5.160;2023-03-14T06:16:42;98813.25;;;11.35;80.79
66524;BME280;53350;52.210;5.160;2023-03-14T06:19:09;98840.88;;;11.33;80.68
66524;BME280;53350;52.210;5.160;2023-03-14T06:21:37;98845.63;;;11.23;79.01
66524;BME280;53350;52.210;5.160;2023-03-14T06:24:03;98857.25;;;11.13;78.55
66524;BME280;53350;52.210;5.160;2023-03-14T06:26:30;98857.78;;;11.02;78.36
66524;BME280;53350;52.210;5.160;2023-03-14T06:28:58;98870.91;;;10.96;77.86
66524;BME280;53350;52.210;5.160;2023-03-14T06:31:28;98883.44;;;10.85;77.77
66524;BME280;53350;52.210;5.160;2023-03-14T06:33:55;98892.31;;;10.79;77.86
66524;BME280;53350;52.210;5.160;2023-03-14T06:36:22;98898.63;;;10.72;77.68
66524;BME280;53350;52.210;5.160;2023-03-14T06:38:48;98902.78;;;10.74;77.91
66524;BME280;53350;52.210;5.160;2023-03-14T06:41:14;98911.44;;;10.73;77.92
66524;BME280;53350;52.210;5.160;2023-03-14T06:43:41;98907.03;;;10.75;77.80
66524;BME280;53350;52.210;5.160;2023-03-14T06:46:09;98908.66;;;10.78;77.77
66524;BME280;53350;52.210;5.160;2023-03-14T06:48:35;98914.69;;;10.77;77.69
66524;BME280;53350;52.210;5.160;2023-03-14T06:51:02;98930.00;;;10.80;77.81
66524;BME280;53350;52.210;5.160;2023-03-14T06:53:28;98942.06;;;10.79;77.56
66524;BME280;53350;52.210;5.160;2023-03-14T06:55:55;98947.22;;;10.79;77.63
66524;BME280;53350;52.210;5.160;2023-03-14T06:58:21;98959.28;;;10.77;77.43
66524;BME280;53350;52.210;5.160;2023-03-14T07:00:47;98956.84;;;10.74;77.39
66524;BME280;53350;52.210;5.160;2023-03-14T07:03:15;98962.22;;;10.70;77.28
66524;BME280;53350;52.210;5.160;2023-03-14T07:05:42;98983.09;;;10.64;77.32
66524;BME280;53350;52.210;5.160;2023-03-14T07:08:08;98991.91;;;10.58;77.05
66524;BME280;53350;52.210;5.160;2023-03-14T07:10:35;98993.19;;;10.48;77.07
66524;BME280;53350;52.210;5.160;2023-03-14T07:13:01;99006.19;;;10.44;76.50
66524;BME280;53350;52.210;5.160;2023-03-14T07:15:28;99014.69;;;10.24;75.75
66524;BME280;53350;52.210;5.160;2023-03-14T07:17:54;99021.94;;;10.15;76.28
66524;BME280;53350;52.210;5.160;2023-03-14T07:20:22;99044.53;;;10.06;75.95
66524;BME280;53350;52.210;5.160;2023-03-14T07:22:48;99055.38;;;9.92;75.99
66524;BME280;53350;52.210;5.160;2023-03-14T07:25:16;99068.31;;;9.67;76.08
66524;BME280;53350;52.210;5.160;2023-03-14T07:27:43;99081.56;;;9.56;76.47
66524;BME280;53350;52.210;5.160;2023-03-14T07:30:10;99093.66;;;9.54;76.53
66524;BME280;53350;52.210;5.160;2023-03-14T07:32:37;99104.03;;;9.51;76.45
66524;BME280;53350;52.210;5.160;2023-03-14T07:35:04;99123.88;;;9.48;76.17
66524;BME280;53350;52.210;5.160;2023-03-14T07:37:32;99122.56;;;9.36;76.01
66524;BME280;53350;52.210;5.160;2023-03-14T07:39:58;99131.38;;;9.29;76.22
66524;BME280;53350;52.210;5.160;2023-03-14T07:42:25;99141.66;;;9.29;76.26
66524;BME280;53350;52.210;5.160;2023-03-14T07:44:51;99146.06;;;9.25;76.54
66524;BME280;53350;52.210;5.160;2023-03-14T07:47:17;99154.41;;;9.32;76.52
66524;BME280;53350;52.210;5.160;2023-03-14T07:49:44;99174.41;;;9.22;76.87
66524;BME280;53350;52.210;5.160;2023-03-14T07:52:11;99190.78;;;9.19;76.44
66524;BME280;53350;52.210;5.160;2023-03-14T07:54:39;99216.31;;;8.97;76.57
66524;BME280;53350;52.210;5.160;2023-03-14T07:57:05;99231.38;;;8.81;76.32
66524;BME280;53350;52.210;5.160;2023-03-14T07:59:32;99241.78;;;8.77;76.54
66524;BME280;53350;52.210;5.160;2023-03-14T08:01:58;99263.50;;;8.66;76.30
66524;BME280;53350;52.210;5.160;2023-03-14T08:04:25;99286.34;;;8.44;76.46
66524;BME280;53350;52.210;5.160;2023-03-14T08:06:52;99280.84;;;8.27;76.86
66524;BME280;53350;52.210;5.160;2023-03-14T08:09:19;99294.19;;;8.08;77.04
66524;BME280;53350;52.210;5.160;2023-03-14T08:11:47;99309.84;;;7.97;77.67
66524;BME280;53350;52.210;5.160;2023-03-14T08:14:13;99317.63;;;7.94;77.32
66524;BME280;53350;52.210;5.160;2023-03-14T08:16:40;99334.50;;;7.69;77.96
66524;BME280;53350;52.210;5.160;2023-03-14T08:19:06;99340.53;;;7.68;77.72
66524;BME280;53350;52.210;5.160;2023-03-14T08:21:32;99349.88;;;7.69;77.87
66524;BME280;53350;52.210;5.160;2023-03-14T08:23:59;99360.00;;;7.73;77.61
66524;BME280;53350;52.210;5.160;2023-03-14T08:26:25;99365.28;;;7.67;77.18
66524;BME280;53350;52.210;5.160;2023-03-14T08:28:53;99376.41;;;7.68;77.63
66524;BME280;53350;52.210;5.160;2023-03-14T08:31:19;99386.69;;;7.64;77.24
66524;BME280;53350;52.210;5.160;2023-03-14T08:33:46;99413.00;;;7.73;77.44
66524;BME280;53350;52.210;5.160;2023-03-14T08:36:12;99409.56;;;7.74;76.76
66524;BME280;53350;52.210;5.160;2023-03-14T08:38:39;99425.88;;;7.70;77.05
66524;BME280;53350;52.210;5.160;2023-03-14T08:41:08;99449.69;;;7.75;76.96
66524;BME280;53350;52.210;5.160;2023-03-14T08:43:35;99466.63;;;7.80;76.70
66524;BME280;53350;52.210;5.160;2023-03-14T08:46:03;99453.09;;;7.75;75.83
66524;BME280;53350;52.210;5.160;2023-03-14T08:48:29;99484.91;;;7.66;75.74
66524;BME280;53350;52.210;5.160;2023-03-14T08:50:56;99478.72;;;7.75;75.36
66524;BME280;53350;52.210;5.160;2023-03-14T08:53:23;99491.38;;;7.83;74.75
66524;BME280;53350;52.210;5.160;2023-03-14T08:55:52;99497.31;;;7.85;74.61
66524;BME280;53350;52.210;5.160;2023-03-14T08:58:19;99494.41;;;7.99;73.81
66524;BME280;53350;52.210;5.160;2023-03-14T09:00:45;99508.09;;;7.99;73.67
66524;BME280;53350;52.210;5.160;2023-03-14T09:03:13;99514.94;;;7.99;73.09
66524;BME280;53350;52.210;5.160;2023-03-14T09:05:39;99519.97;;;8.02;72.78
66524;BME280;53350;52.210;5.160;2023-03-14T09:08:06;99521.88;;;7.95;72.58
66524;BME280;53350;52.210;5.160;2023-03-14T09:10:32;99541.66;;;7.89;72.82
66524;BME280;53350;52.210;5.160;2023-03-14T09:12:59;99558.63;;;7.94;72.07
66524;BME280;53350;52.210;5.160;2023-03-14T09:15:25;99568.81;;;7.97;71.42
66524;BME280;53350;52.210;5.160;2023-03-14T09:17:51;99572.16;;;8.01;71.23
66524;BME280;53350;52.210;5.160;2023-03-14T09:20:20;99587.69;;;7.93;72.02
66524;BME280;53350;52.210;5.160;2023-03-14T09:22:46;99588.56;;;7.94;72.09
66524;BME280;53350;52.210;5.160;2023-03-14T09:25:12;99609.81;;;7.99;72.15
66524;BME280;53350;52.210;5.160;2023-03-14T09:27:39;99609.13;;;7.92;72.11
66524;BME280;53350;52.210;5.160;2023-03-14T09:30:06;99629.81;;;7.81;72.71
66524;BME280;53350;52.210;5.160;2023-03-14T09:32:33;99636.59;;;7.86;72.23
66524;BME280;53350;52.210;5.160;2023-03-14T09:35:00;99640.81;;;7.88;72.55
66524;BME280;53350;52.210;5.160;2023-03-14T09:37:27;99647.59;;;7.91;71.88
66524;BME280;53350;52.210;5.160;2023-03-14T09:39:54;99657.78;;;7.94;72.54
66524;BME280;53350;52.210;5.160;2023-03-14T09:42:23;99657.81;;;7.92;72.71
66524;BME280;53350;52.210;5.160;2023-03-14T09:44:54;99673.13;;;7.97;73.35
66524;BME280;53350;52.210;5.160;2023-03-14T09:47:23;99679.69;;;8.09;72.61
66524;BME280;53350;52.210;5.160;2023-03-14T09:49:50;99689.91;;;8.12;73.22
66524;BME280;53350;52.210;5.160;2023-03-14T09:52:21;99701.00;;;8.12;73.82
66524;BME280;53350;52.210;5.160;2023-03-14T09:54:51;99725.81;;;8.12;72.93
66524;BME280;53350;52.210;5.160;2023-03-14T09:57:20;99719.31;;;7.95;72.89
66524;BME280;53350;52.210;5.160;2023-03-14T09:59:49;99734.53;;;8.03;72.32
66524;BME280;53350;52.210;5.160;2023-03-14T10:02:18;99743.34;;;7.90;73.49
66524;BME280;53350;52.210;5.160;2023-03-14T10:04:46;99757.16;;;7.82;73.71
66524;BME280;53350;52.210;5.160;2023-03-14T10:07:14;99762.34;;;7.79;73.28
66524;BME280;53350;52.210;5.160;2023-03-14T10:09:42;99759.75;;;7.79;73.64
66524;BME280;53350;52.210;5.160;2023-03-14T10:12:11;99765.66;;;7.83;73.74
66524;BME280;53350;52.210;5.160;2023-03-14T10:14:45;99782.72;;;7.86;73.52
66524;BME280;53350;52.210;5.160;2023-03-14T10:17:13;99788.69;;;7.86;73.35
66524;BME280;53350;52.210;5.160;2023-03-14T10:19:51;99794.53;;;7.94;73.47
66524;BME280;53350;52.210;5.160;2023-03-14T10:22:19;99794.34;;;8.04;73.63
66524;BME280;53350;52.210;5.160;2023-03-14T10:24:45;99806.03;;;8.20;73.43
66524;BME280;53350;52.210;5.160;2023-03-14T10:27:19;99826.25;;;8.34;72.93
66524;BME280;53350;52.210;5.160;2023-03-14T10:29:52;99826.13;;;8.42;71.17
66524;BME280;53350;52.210;5.160;2023-03-14T10:32:21;99837.06;;;8.51;67.82
66524;BME280;53350;52.210;5.160;2023-03-14T10:35:11;99862.00;;;8.46;68.65
66524;BME280;53350;52.210;5.160;2023-03-14T10:37:50;99875.81;;;8.38;66.91
66524;BME280;53350;52.210;5.160;2023-03-14T10:40:18;99891.13;;;8.42;68.08
66524;BME280;53350;52.210;5.160;2023-03-14T10:42:46;99898.03;;;8.39;67.31
66524;BME280;53350;52.210;5.160;2023-03-14T10:45:28;99904.88;;;8.38;66.11
66524;BME280;53350;52.210;5.160;2023-03-14T10:47:58;99916.88;;;8.38;66.24
66524;BME280;53350;52.210;5.160;2023-03-14T10:50:26;99911.81;;;8.33;65.67
66524;BME280;53350;52.210;5.160;2023-03-14T10:52:53;99925.44;;;8.36;65.27
66524;BME280;53350;52.210;5.160;2023-03-14T10:55:20;99934.72;;;8.45;64.37
66524;BME280;53350;52.210;5.160;2023-03-14T10:57:48;99966.41;;;8.41;64.10
66524;BME280;53350;52.210;5.160;2023-03-14T11:00:17;99954.41;;;8.43;63.51
66524;BME280;53350;52.210;5.160;2023-03-14T11:02:56;99964.50;;;8.54;63.52
66524;BME280;53350;52.210;5.160;2023-03-14T11:05:30;99976.31;;;8.63;60.82
66524;BME280;53350;52.210;5.160;2023-03-14T11:08:01;99971.88;;;8.73;61.05
66524;BME280;53350;52.210;5.160;2023-03-14T11:10:31;99994.06;;;8.77;61.25
66524;BME280;53350;52.210;5.160;2023-03-14T11:13:11;100003.31;;;8.85;59.11
66524;BME280;53350;52.210;5.160;2023-03-14T11:15:45;100007.38;;;8.96;58.73
66524;BME280;53350;52.210;5.160;2023-03-14T11:18:27;100017.72;;;8.93;58.49
66524;BME280;53350;52.210;5.160;2023-03-14T11:21:01;100030.53;;;8.94;57.38
66524;BME280;53350;52.210;5.160;2023-03-14T11:23:34;100028.84;;;8.93;57.36
66524;BME280;53350;52.210;5.160;2023-03-14T11:26:14;100048.44;;;8.97;57.20
66524;BME280;53350;52.210;5.160;2023-03-14T11:28:49;100061.22;;;9.00;57.56
66524;BME280;53350;52.210;5.160;2023-03-14T11:31:18;100072.25;;;9.07;55.77
66524;BME280;53350;52.210;5.160;2023-03-14T11:33:52;100076.50;;;9.10;53.81
66524;BME280;53350;52.210;5.160;2023-03-14T11:36:27;100086.53;;;9.22;52.63
66524;BME280;53350;52.210;5.160;2023-03-14T11:38:58;100083.94;;;9.23;51.86
66524;BME280;53350;52.210;5.160;2023-03-14T11:41:27;100095.00;;;9.27;52.41
66524;BME280;53350;52.210;5.160;2023-03-14T11:43:59;100096.63;;;9.33;51.55
66524;BME280;53350;52.210;5.160;2023-03-14T11:46:31;100103.47;;;9.32;50.53
66524;BME280;53350;52.210;5.160;2023-03-14T11:49:03;100111.88;;;9.40;48.98
66524;BME280;53350;52.210;5.160;2023-03-14T11:51:34;100113.88;;;9.26;49.60
66524;BME280;53350;52.210;5.160;2023-03-14T11:54:07;100123.34;;;9.24;49.21
66524;BME280;53350;52.210;5.160;2023-03-14T11:56:43;100127.72;;;9.17;49.24
66524;BME280;53350;52.210;5.160;2023-03-14T11:59:16;100141.16;;;9.33;49.89
66524;BME280;53350;52.210;5.160;2023-03-14T12:01:55;100155.59;;;9.40;49.75
66524;BME280;53350;52.210;5.160;2023-03-14T12:04:33;100158.34;;;9.28;47.98
66524;BME280;53350;52.210;5.160;2023-03-14T12:07:11;100164.16;;;9.39;47.81
66524;BME280;53350;52.210;5.160;2023-03-14T12:09:39;100157.38;;;9.35;48.51
66524;BME280;53350;52.210;5.160;2023-03-14T12:12:06;100171.09;;;9.36;47.55
66524;BME280;53350;52.210;5.160;2023-03-14T12:14:45;100170.41;;;9.26;46.61
66524;BME280;53350;52.210;5.160;2023-03-14T12:17:19;100174.69;;;9.27;46.80
66524;BME280;53350;52.210;5.160;2023-03-14T12:19:47;100184.72;;;9.39;47.54
66524;BME280;53350;52.210;5.160;2023-03-14T12:22:26;100196.56;;;9.48;47.67
66524;BME280;53350;52.210;5.160;2023-03-14T12:24:56;100197.50;;;9.43;45.59
66524;BME280;53350;52.210;5.160;2023-03-14T12:27:47;100200.00;;;9.49;45.71
66524;BME280;53350;52.210;5.160;2023-03-14T12:30:27;100211.94;;;9.50;44.34
66524;BME280;53350;52.210;5.160;2023-03-14T12:33:28;100216.25;;;9.49;43.49
66524;BME280;53350;52.210;5.160;2023-03-14T12:36:18;100217.97;;;9.50;43.66
66524;BME280;53350;52.210;5.160;2023-03-14T12:39:04;100219.56;;;9.57;43.88
66524;BME280;53350;52.210;5.160;2023-03-14T12:41:40;100206.84;;;9.48;44.83
66524;BME280;53350;52.210;5.160;2023-03-14T12:44:44;100228.13;;;9.56;43.73
66524;BME280;53350;52.210;5.160;2023-03-14T12:50:31;100248.88;;;9.47;44.09
66524;BME280;53350;52.210;5.160;2023-03-14T12:53:33;100254.94;;;9.43;45.79
66524;BME280;53350;52.210;5.160;2023-03-14T12:56:10;100255.81;;;9.40;43.61
66524;BME280;53350;52.210;5.160;2023-03-14T12:58:44;100259.31;;;9.36;44.12
66524;BME280;53350;52.210;5.160;2023-03-14T13:01:16;100265.97;;;9.48;44.69
66524;BME280;53350;52.210;5.160;2023-03-14T13:03:47;100263.25;;;9.57;44.19
66524;BME280;53350;52.210;5.160;2023-03-14T13:06:51;100274.22;;;9.67;44.84
66524;BME280;53350;52.210;5.160;2023-03-14T13:09:45;100287.75;;;9.77;43.69
66524;BME280;53350;52.210;5.160;2023-03-14T13:12:16;100288.50;;;9.84;43.16
66524;BME280;53350;52.210;5.160;2023-03-14T13:14:45;100285.94;;;9.84;42.41
66524;BME280;53350;52.210;5.160;2023-03-14T13:17:12;100313.69;;;9.66;42.21
66524;BME280;53350;52.210;5.160;2023-03-14T13:19:40;100311.78;;;9.76;42.65